sensor_id;sensor_type;location;lat;lon;timestamp;temperature;humidity
16955;DHT22;8594;52.052;8.354;2023-03-01T00:00:18;3.20;99.90
16955;DHT22;8594;52.052;8.354;2023-03-01T00:02:46;3.20;99.90
16955;DHT22;8594;52.052;8.354;2023-03-01T00:05:12;3.40;99.90
16955;DHT22;8594;52.052;8.354;2023-03-01T00:07:40;3.30;99.90
16955;DHT22;8594;52.052;8.354;2023-03-01T00:10:09;3.10;99.90
16955;DHT22;8594;52.052;8.354;2023-03-01T00:12:36;3.10;99.90
16955;DHT22;8594;52.052;8.354;2023-03-01T00:15:04;3.00;99.90
16955;DHT22;8594;52.052;8.354;2023-03-01T00:17:31;2.80;99.90
16955;DHT22;8594;52.052;8.354;2023-03-01T00:19:58;2.80;99.90
16955;DHT22;8594;52.052;8.354;2023-03-01T00:22:26;3.00;99.90
16955;DHT22;8594;52.052;8.354;2023-03-01T00:24:55;3.20;99.90
16955;DHT22;8594;52.052;8.354;2023-03-01T00:27:22;3.10;99.90
16955;DHT22;8594;52.052;8.354;2023-03-01T00:29:49;3.20;99.90
16955;DHT22;8594;52.052;8.354;2023-03-01T00:32:16;3.10;99.90
16955;DHT22;8594;52.052;8.354;2023-03-01T00:34:43;3.00;99.90
16955;DHT22;8594;52.052;8.354;2023-03-01T00:37:19;3.00;99.90
16955;DHT22;8594;52.052;8.354;2023-03-01T00:39:46;2.90;99.90
16955;DHT22;8594;52.052;8.354;2023-03-01T00:42:14;2.90;99.90
16955;DHT22;8594;52.052;8.354;2023-03-01T00:44:42;2.90;99.90
16955;DHT22;8594;52.052;8.354;2023-03-01T00:47:08;2.80;99.90
16955;DHT22;8594;52.052;8.354;2023-03-01T00:49:35;2.90;99.90
16955;DHT22;8594;52.052;8.354;2023-03-01T00:52:02;2.80;99.90
16955;DHT22;8594;52.052;8.354;2023-03-01T00:54:29;2.90;99.90
16955;DHT22;8594;52.052;8.354;2023-03-01T00:56:56;2.90;99.90
16955;DHT22;8594;52.052;8.354;2023-03-01T00:59:24;2.80;99.90
16955;DHT22;8594;52.052;8.354;2023-03-01T01:01:51;2.80;99.90
16955;DHT22;8594;52.052;8.354;2023-03-01T01:04:17;2.80;99.90
16955;DHT22;8594;52.052;8.354;2023-03-01T01:06:45;2.80;99.90
16955;DHT22;8594;52.052;8.354;2023-03-01T01:09:14;2.70;99.90
16955;DHT22;8594;52.052;8.354;2023-03-01T01:11:43;2.70;99.90
16955;DHT22;8594;52.052;8.354;2023-03-01T01:14:11;2.70;99.90
16955;DHT22;8594;52.052;8.354;2023-03-01T01:16:40;2.60;99.90
16955;DHT22;8594;52.052;8.354;2023-03-01T01:19:07;2.60;99.90
16955;DHT22;8594;52.052;8.354;2023-03-01T01:21:34;2.70;99.90
16955;DHT22;8594;52.052;8.354;2023-03-01T01:24:02;2.60;99.90
16955;DHT22;8594;52.052;8.354;2023-03-01T01:26:31;2.60;99.90
16955;DHT22;8594;52.052;8.354;2023-03-01T01:29:00;2.60;99.90
16955;DHT22;8594;52.052;8.354;2023-03-01T01:31:29;2.60;99.90
16955;DHT22;8594;52.052;8.354;2023-03-01T01:33:59;2.60;99.90
16955;DHT22;8594;52.052;8.354;2023-03-01T01:36:27;2.60;99.90
16955;DHT22;8594;52.052;8.354;2023-03-01T01:38:54;2.50;99.90
16955;DHT22;8594;52.052;8.354;2023-03-01T01:41:22;2.50;99.90
16955;DHT22;8594;52.052;8.354;2023-03-01T01:44:10;2.50;99.90
16955;DHT22;8594;52.052;8.354;2023-03-01T01:46:43;2.60;99.90
16955;DHT22;8594;52.052;8.354;2023-03-01T01:49:19;2.60;99.90
16955;DHT22;8594;52.052;8.354;2023-03-01T01:51:55;2.60;99.90
16955;DHT22;8594;52.052;8.354;2023-03-01T01:54:31;2.50;99.90
16955;DHT22;8594;52.052;8.354;2023-03-01T01:57:09;2.50;99.90
16955;DHT22;8594;52.052;8.354;2023-03-01T01:59:43;2.50;99.90
16955;DHT22;8594;52.052;8.354;2023-03-01T02:02:15;2.50;99.90
16955;DHT22;8594;52.052;8.354;2023-03-01T02:04:44;2.50;99.90
16955;DHT22;8594;52.052;8.354;2023-03-01T02:07:15;2.50;99.90
16955;DHT22;8594;52.052;8.354;2023-03-01T02:09:46;2.50;99.90
16955;DHT22;8594;52.052;8.354;2023-03-01T02:12:14;2.40;99.90
16955;DHT22;8594;52.052;8.354;2023-03-01T02:14:44;2.40;99.90
16955;DHT22;8594;52.052;8.354;2023-03-01T02:17:11;2.40;99.90
16955;DHT22;8594;52.052;8.354;2023-03-01T02:19:54;2.40;99.90
16955;DHT22;8594;52.052;8.354;2023-03-01T02:22:33;2.40;99.90
16955;DHT22;8594;52.052;8.354;2023-03-01T02:25:12;2.30;99.90
16955;DHT22;8594;52.052;8.354;2023-03-01T02:27:54;2.30;99.90
16955;DHT22;8594;52.052;8.354;2023-03-01T02:30:29;2.30;99.90
16955;DHT22;8594;52.052;8.354;2023-03-01T02:32:59;2.40;99.90
16955;DHT22;8594;52.052;8.354;2023-03-01T02:35:29;2.40;99.90
16955;DHT22;8594;52.052;8.354;2023-03-01T02:37:59;2.30;99.90
16955;DHT22;8594;52.052;8.354;2023-03-01T02:40:30;2.30;99.90
16955;DHT22;8594;52.052;8.354;2023-03-01T02:42:58;2.20;99.90
16955;DHT22;8594;52.052;8.354;2023-03-01T02:45:27;2.20;99.90
16955;DHT22;8594;52.052;8.354;2023-03-01T02:47:54;2.20;99.90
16955;DHT22;8594;52.052;8.354;2023-03-01T02:50:47;2.00;99.90
16955;DHT22;8594;52.052;8.354;2023-03-01T02:53:32;2.00;99.90
16955;DHT22;8594;52.052;8.354;2023-03-01T02:56:05;2.00;99.90
16955;DHT22;8594;52.052;8.354;2023-03-01T02:58:38;2.00;99.90
16955;DHT22;8594;52.052;8.354;2023-03-01T03:01:12;2.00;99.90
16955;DHT22;8594;52.052;8.354;2023-03-01T03:03:40;2.00;99.90
16955;DHT22;8594;52.052;8.354;2023-03-01T03:06:08;2.00;99.90
16955;DHT22;8594;52.052;8.354;2023-03-01T03:08:35;1.90;99.90
16955;DHT22;8594;52.052;8.354;2023-03-01T03:11:02;1.90;99.90
16955;DHT22;8594;52.052;8.354;2023-03-01T03:13:30;1.90;99.90
16955;DHT22;8594;52.052;8.354;2023-03-01T03:15:57;1.90;99.90
16955;DHT22;8594;52.052;8.354;2023-03-01T03:18:25;1.90;99.90
16955;DHT22;8594;52.052;8.354;2023-03-01T03:20:53;1.90;99.90
16955;DHT22;8594;52.052;8.354;2023-03-01T03:23:21;1.90;99.90
16955;DHT22;8594;52.052;8.354;2023-03-01T03:25:49;2.00;99.90
16955;DHT22;8594;52.052;8.354;2023-03-01T03:28:17;1.90;99.90
16955;DHT22;8594;52.052;8.354;2023-03-01T03:30:44;1.90;99.90
16955;DHT22;8594;52.052;8.354;2023-03-01T03:33:12;1.90;99.90
16955;DHT22;8594;52.052;8.354;2023-03-01T03:35:43;1.80;99.90
16955;DHT22;8594;52.052;8.354;2023-03-01T03:38:13;1.80;99.90
16955;DHT22;8594;52.052;8.354;2023-03-01T03:40:44;2.00;99.90
16955;DHT22;8594;52.052;8.354;2023-03-01T03:43:14;2.00;99.90
16955;DHT22;8594;52.052;8.354;2023-03-01T03:45:44;1.90;99.90
16955;DHT22;8594;52.052;8.354;2023-03-01T03:48:11;1.90;99.90
16955;DHT22;8594;52.052;8.354;2023-03-01T03:50:40;2.00;99.90
16955;DHT22;8594;52.052;8.354;2023-03-01T03:53:10;2.00;99.90
16955;DHT22;8594;52.052;8.354;2023-03-01T03:55:38;1.70;99.90
16955;DHT22;8594;52.052;8.354;2023-03-01T03:58:09;1.80;99.90
16955;DHT22;8594;52.052;8.354;2023-03-01T04:00:38;1.90;99.90
16955;DHT22;8594;52.052;8.354;2023-03-01T04:03:07;2.00;99.90
16955;DHT22;8594;52.052;8.354;2023-03-01T04:05:36;2.00;99.90
16955;DHT22;8594;52.052;8.354;2023-03-01T04:08:05;1.80;99.90
16955;DHT22;8594;52.052;8.354;2023-03-01T04:10:35;1.80;99.90
16955;DHT22;8594;52.052;8.354;2023-03-01T04:13:03;1.70;99.90
16955;DHT22;8594;52.052;8.354;2023-03-01T04:15:31;1.90;99.90
16955;DHT22;8594;52.052;8.354;2023-03-01T04:17:59;1.80;99.90
16955;DHT22;8594;52.052;8.354;2023-03-01T04:20:28;1.90;99.90
16955;DHT22;8594;52.052;8.354;2023-03-01T04:23:01;1.90;99.90
16955;DHT22;8594;52.052;8.354;2023-03-01T04:25:38;1.90;99.90
16955;DHT22;8594;52.052;8.354;2023-03-01T04:28:07;2.00;99.90
16955;DHT22;8594;52.052;8.354;2023-03-01T04:30:34;2.10;99.90
16955;DHT22;8594;52.052;8.354;2023-03-01T04:33:03;2.10;99.90
16955;DHT22;8594;52.052;8.354;2023-03-01T04:35:31;2.10;99.90
16955;DHT22;8594;52.052;8.354;2023-03-01T04:37:59;2.10;99.90
16955;DHT22;8594;52.052;8.354;2023-03-01T04:40:26;2.10;99.90
16955;DHT22;8594;52.052;8.354;2023-03-01T04:42:54;1.90;99.90
16955;DHT22;8594;52.052;8.354;2023-03-01T04:45:22;1.80;99.90
16955;DHT22;8594;52.052;8.354;2023-03-01T04:47:49;1.70;99.90
16955;DHT22;8594;52.052;8.354;2023-03-01T04:50:18;1.70;99.90
16955;DHT22;8594;52.052;8.354;2023-03-01T04:52:47;1.70;99.90
16955;DHT22;8594;52.052;8.354;2023-03-01T04:55:14;1.70;99.90
16955;DHT22;8594;52.052;8.354;2023-03-01T04:57:42;1.70;99.90
16955;DHT22;8594;52.052;8.354;2023-03-01T05:00:13;1.70;99.90
16955;DHT22;8594;52.052;8.354;2023-03-01T05:02:49;1.60;99.90
16955;DHT22;8594;52.052;8.354;2023-03-01T05:05:19;1.50;99.90
16955;DHT22;8594;52.052;8.354;2023-03-01T05:07:54;1.40;99.90
16955;DHT22;8594;52.052;8.354;2023-03-01T05:10:23;1.30;99.90
16955;DHT22;8594;52.052;8.354;2023-03-01T05:12:50;1.20;99.90
16955;DHT22;8594;52.052;8.354;2023-03-01T05:15:20;1.20;99.90
16955;DHT22;8594;52.052;8.354;2023-03-01T05:17:50;1.10;99.90
16955;DHT22;8594;52.052;8.354;2023-03-01T05:20:17;1.10;99.90
16955;DHT22;8594;52.052;8.354;2023-03-01T05:22:48;1.10;99.90
16955;DHT22;8594;52.052;8.354;2023-03-01T05:25:15;1.10;99.90
16955;DHT22;8594;52.052;8.354;2023-03-01T05:27:42;1.20;99.90
16955;DHT22;8594;52.052;8.354;2023-03-01T05:30:10;1.20;99.90
16955;DHT22;8594;52.052;8.354;2023-03-01T05:32:42;1.10;99.90
16955;DHT22;8594;52.052;8.354;2023-03-01T05:35:11;1.10;99.90
16955;DHT22;8594;52.052;8.354;2023-03-01T05:37:41;1.00;99.90
16955;DHT22;8594;52.052;8.354;2023-03-01T05:40:10;1.00;99.90
16955;DHT22;8594;52.052;8.354;2023-03-01T05:42:44;1.00;99.90
16955;DHT22;8594;52.052;8.354;2023-03-01T05:45:13;1.00;99.90
16955;DHT22;8594;52.052;8.354;2023-03-01T05:47:43;1.00;99.90
16955;DHT22;8594;52.052;8.354;2023-03-01T05:50:13;1.10;99.90
16955;DHT22;8594;52.052;8.354;2023-03-01T05:52:45;1.20;99.90
16955;DHT22;8594;52.052;8.354;2023-03-01T05:55:14;1.20;99.90
16955;DHT22;8594;52.052;8.354;2023-03-01T05:57:41;1.10;99.90
16955;DHT22;8594;52.052;8.354;2023-03-01T06:00:09;1.00;99.90
16955;DHT22;8594;52.052;8.354;2023-03-01T06:02:37;1.10;99.90
16955;DHT22;8594;52.052;8.354;2023-03-01T06:05:07;1.10;99.90
16955;DHT22;8594;52.052;8.354;2023-03-01T06:07:35;1.10;99.90
16955;DHT22;8594;52.052;8.354;2023-03-01T06:10:03;1.10;99.90
16955;DHT22;8594;52.052;8.354;2023-03-01T06:12:32;1.00;99.90
16955;DHT22;8594;52.052;8.354;2023-03-01T06:14:59;0.90;99.90
16955;DHT22;8594;52.052;8.354;2023-03-01T06:17:29;0.90;99.90
16955;DHT22;8594;52.052;8.354;2023-03-01T06:19:57;0.90;99.90
16955;DHT22;8594;52.052;8.354;2023-03-01T06:22:26;0.90;99.90
16955;DHT22;8594;52.052;8.354;2023-03-01T06:24:53;0.90;99.90
16955;DHT22;8594;52.052;8.354;2023-03-01T06:27:20;0.90;99.90
16955;DHT22;8594;52.052;8.354;2023-03-01T06:29:47;1.00;99.90
16955;DHT22;8594;52.052;8.354;2023-03-01T06:32:14;1.00;99.90
16955;DHT22;8594;52.052;8.354;2023-03-01T06:34:41;1.00;99.90
16955;DHT22;8594;52.052;8.354;2023-03-01T06:37:08;1.00;99.90
16955;DHT22;8594;52.052;8.354;2023-03-01T06:39:36;1.00;99.90
16955;DHT22;8594;52.052;8.354;2023-03-01T06:42:04;0.90;99.90
16955;DHT22;8594;52.052;8.354;2023-03-01T06:44:31;0.90;99.90
16955;DHT22;8594;52.052;8.354;2023-03-01T06:46:58;0.90;99.90
16955;DHT22;8594;52.052;8.354;2023-03-01T06:49:25;0.90;99.90
16955;DHT22;8594;52.052;8.354;2023-03-01T06:51:52;0.90;99.90
16955;DHT22;8594;52.052;8.354;2023-03-01T06:54:19;0.80;99.90
16955;DHT22;8594;52.052;8.354;2023-03-01T06:56:49;0.80;99.90
16955;DHT22;8594;52.052;8.354;2023-03-01T06:59:17;0.80;99.90
16955;DHT22;8594;52.052;8.354;2023-03-01T07:01:44;0.80;99.90
16955;DHT22;8594;52.052;8.354;2023-03-01T07:04:11;0.80;99.90
16955;DHT22;8594;52.052;8.354;2023-03-01T07:06:39;0.90;99.90
16955;DHT22;8594;52.052;8.354;2023-03-01T07:09:06;1.00;99.90
16955;DHT22;8594;52.052;8.354;2023-03-01T07:11:33;1.00;99.90
16955;DHT22;8594;52.052;8.354;2023-03-01T07:14:01;1.00;99.90
16955;DHT22;8594;52.052;8.354;2023-03-01T07:16:28;1.10;99.90
16955;DHT22;8594;52.052;8.354;2023-03-01T07:18:55;1.10;99.90
16955;DHT22;8594;52.052;8.354;2023-03-01T07:21:22;1.20;99.90
16955;DHT22;8594;52.052;8.354;2023-03-01T07:23:49;1.20;99.90
16955;DHT22;8594;52.052;8.354;2023-03-01T07:26:15;1.20;99.90
16955;DHT22;8594;52.052;8.354;2023-03-01T07:28:42;1.30;99.90
16955;DHT22;8594;52.052;8.354;2023-03-01T07:31:10;1.40;99.90
16955;DHT22;8594;52.052;8.354;2023-03-01T07:33:37;1.50;99.90
16955;DHT22;8594;52.052;8.354;2023-03-01T07:36:05;1.70;99.90
16955;DHT22;8594;52.052;8.354;2023-03-01T07:38:33;2.30;99.90
16955;DHT22;8594;52.052;8.354;2023-03-01T07:41:01;2.90;99.90
16955;DHT22;8594;52.052;8.354;2023-03-01T07:43:30;3.60;99.90
16955;DHT22;8594;52.052;8.354;2023-03-01T07:45:58;4.10;99.90
16955;DHT22;8594;52.052;8.354;2023-03-01T07:48:27;4.80;99.90
16955;DHT22;8594;52.052;8.354;2023-03-01T07:50:58;5.30;99.90
16955;DHT22;8594;52.052;8.354;2023-03-01T07:53:25;5.60;99.90
16955;DHT22;8594;52.052;8.354;2023-03-01T07:56:00;5.70;99.90
16955;DHT22;8594;52.052;8.354;2023-03-01T07:58:28;6.00;99.90
16955;DHT22;8594;52.052;8.354;2023-03-01T08:00:54;6.20;99.90
16955;DHT22;8594;52.052;8.354;2023-03-01T08:03:21;6.50;99.90
16955;DHT22;8594;52.052;8.354;2023-03-01T08:05:49;6.60;99.90
16955;DHT22;8594;52.052;8.354;2023-03-01T08:08:20;7.00;99.90
16955;DHT22;8594;52.052;8.354;2023-03-01T08:10:47;6.90;99.90
16955;DHT22;8594;52.052;8.354;2023-03-01T08:13:14;6.90;99.90
16955;DHT22;8594;52.052;8.354;2023-03-01T08:15:47;7.00;99.90
16955;DHT22;8594;52.052;8.354;2023-03-01T08:18:14;7.20;99.90
16955;DHT22;8594;52.052;8.354;2023-03-01T08:20:41;7.40;99.90
16955;DHT22;8594;52.052;8.354;2023-03-01T08:23:09;7.60;99.90
16955;DHT22;8594;52.052;8.354;2023-03-01T08:25:36;7.80;99.90
16955;DHT22;8594;52.052;8.354;2023-03-01T08:28:04;7.90;99.90
16955;DHT22;8594;52.052;8.354;2023-03-01T08:30:31;8.00;99.90
16955;DHT22;8594;52.052;8.354;2023-03-01T08:32:58;8.00;99.90
16955;DHT22;8594;52.052;8.354;2023-03-01T08:35:25;8.20;99.90
16955;DHT22;8594;52.052;8.354;2023-03-01T08:37:52;8.30;99.90
16955;DHT22;8594;52.052;8.354;2023-03-01T08:40:20;8.30;99.90
16955;DHT22;8594;52.052;8.354;2023-03-01T08:42:47;8.40;99.90
16955;DHT22;8594;52.052;8.354;2023-03-01T08:45:14;8.60;99.90
16955;DHT22;8594;52.052;8.354;2023-03-01T08:47:43;8.90;99.90
16955;DHT22;8594;52.052;8.354;2023-03-01T08:50:11;9.00;99.90
16955;DHT22;8594;52.052;8.354;2023-03-01T08:52:37;9.30;99.90
16955;DHT22;8594;52.052;8.354;2023-03-01T08:55:06;9.50;99.70
16955;DHT22;8594;52.052;8.354;2023-03-01T08:57:35;9.50;99.40
16955;DHT22;8594;52.052;8.354;2023-03-01T09:00:03;9.50;99.30
16955;DHT22;8594;52.052;8.354;2023-03-01T09:02:33;9.70;99.90
16955;DHT22;8594;52.052;8.354;2023-03-01T09:05:00;10.10;98.60
16955;DHT22;8594;52.052;8.354;2023-03-01T09:07:27;10.00;98.60
16955;DHT22;8594;52.052;8.354;2023-03-01T09:09:54;10.10;98.80
16955;DHT22;8594;52.052;8.354;2023-03-01T09:12:21;9.90;98.20
16955;DHT22;8594;52.052;8.354;2023-03-01T09:14:51;9.90;99.00
16955;DHT22;8594;52.052;8.354;2023-03-01T09:17:18;9.70;98.80
16955;DHT22;8594;52.052;8.354;2023-03-01T09:19:46;9.70;99.50
16955;DHT22;8594;52.052;8.354;2023-03-01T09:22:13;9.90;99.30
16955;DHT22;8594;52.052;8.354;2023-03-01T09:24:40;9.80;99.20
16955;DHT22;8594;52.052;8.354;2023-03-01T09:27:07;9.60;99.40
16955;DHT22;8594;52.052;8.354;2023-03-01T09:29:34;9.80;99.40
16955;DHT22;8594;52.052;8.354;2023-03-01T09:32:03;9.80;99.30
16955;DHT22;8594;52.052;8.354;2023-03-01T09:34:30;9.90;99.60
16955;DHT22;8594;52.052;8.354;2023-03-01T09:37:17;10.20;99.70
16955;DHT22;8594;52.052;8.354;2023-03-01T09:39:44;10.40;99.00
16955;DHT22;8594;52.052;8.354;2023-03-01T09:42:11;10.40;99.20
16955;DHT22;8594;52.052;8.354;2023-03-01T09:44:47;10.40;98.60
16955;DHT22;8594;52.052;8.354;2023-03-01T09:47:18;10.20;98.20
16955;DHT22;8594;52.052;8.354;2023-03-01T09:49:57;10.20;98.40
16955;DHT22;8594;52.052;8.354;2023-03-01T09:52:33;10.20;98.10
16955;DHT22;8594;52.052;8.354;2023-03-01T09:55:08;10.30;97.90
16955;DHT22;8594;52.052;8.354;2023-03-01T09:57:43;10.30;97.10
16955;DHT22;8594;52.052;8.354;2023-03-01T10:00:24;10.10;96.90
16955;DHT22;8594;52.052;8.354;2023-03-01T10:03:11;9.60;97.20
16955;DHT22;8594;52.052;8.354;2023-03-01T10:05:52;9.60;97.80
16955;DHT22;8594;52.052;8.354;2023-03-01T10:08:42;9.90;97.20
16955;DHT22;8594;52.052;8.354;2023-03-01T10:11:20;10.10;96.80
16955;DHT22;8594;52.052;8.354;2023-03-01T10:13:58;10.20;96.00
16955;DHT22;8594;52.052;8.354;2023-03-01T10:16:37;9.80;96.70
16955;DHT22;8594;52.052;8.354;2023-03-01T10:19:13;10.00;96.50
16955;DHT22;8594;52.052;8.354;2023-03-01T10:21:45;10.30;96.50
16955;DHT22;8594;52.052;8.354;2023-03-01T10:24:14;10.30;96.50
16955;DHT22;8594;52.052;8.354;2023-03-01T10:26:48;10.00;96.40
16955;DHT22;8594;52.052;8.354;2023-03-01T10:29:25;9.80;97.00
16955;DHT22;8594;52.052;8.354;2023-03-01T10:31:56;10.10;96.20
16955;DHT22;8594;52.052;8.354;2023-03-01T10:34:33;10.10;96.60
16955;DHT22;8594;52.052;8.354;2023-03-01T10:37:10;10.10;96.20
16955;DHT22;8594;52.052;8.354;2023-03-01T10:39:54;10.30;95.80
16955;DHT22;8594;52.052;8.354;2023-03-01T10:42:27;10.00;95.70
16955;DHT22;8594;52.052;8.354;2023-03-01T10:44:56;9.80;96.70
16955;DHT22;8594;52.052;8.354;2023-03-01T10:47:25;9.90;95.90
16955;DHT22;8594;52.052;8.354;2023-03-01T10:50:03;9.80;95.90
16955;DHT22;8594;52.052;8.354;2023-03-01T10:52:56;9.90;96.00
16955;DHT22;8594;52.052;8.354;2023-03-01T10:55:29;9.80;95.90
16955;DHT22;8594;52.052;8.354;2023-03-01T10:58:18;10.20;95.60
16955;DHT22;8594;52.052;8.354;2023-03-01T11:00:49;10.30;94.90
16955;DHT22;8594;52.052;8.354;2023-03-01T11:03:20;10.20;94.80
16955;DHT22;8594;52.052;8.354;2023-03-01T11:05:59;10.00;94.60
16955;DHT22;8594;52.052;8.354;2023-03-01T11:08:37;9.90;94.70
16955;DHT22;8594;52.052;8.354;2023-03-01T11:11:22;9.40;95.30
16955;DHT22;8594;52.052;8.354;2023-03-01T11:13:55;9.30;95.00
16955;DHT22;8594;52.052;8.354;2023-03-01T11:16:35;9.00;95.20
16955;DHT22;8594;52.052;8.354;2023-03-01T11:19:20;8.80;95.60
16955;DHT22;8594;52.052;8.354;2023-03-01T11:21:55;8.60;96.10
16955;DHT22;8594;52.052;8.354;2023-03-01T11:24:31;8.90;95.80
16955;DHT22;8594;52.052;8.354;2023-03-01T11:27:07;8.90;95.80
16955;DHT22;8594;52.052;8.354;2023-03-01T11:29:43;8.90;95.60
16955;DHT22;8594;52.052;8.354;2023-03-01T11:32:17;9.00;95.10
16955;DHT22;8594;52.052;8.354;2023-03-01T11:34:50;8.90;95.70
16955;DHT22;8594;52.052;8.354;2023-03-01T11:37:32;8.90;96.40
16955;DHT22;8594;52.052;8.354;2023-03-01T11:40:10;8.80;96.30
16955;DHT22;8594;52.052;8.354;2023-03-01T11:42:48;9.00;95.80
16955;DHT22;8594;52.052;8.354;2023-03-01T11:45:24;8.90;95.90
16955;DHT22;8594;52.052;8.354;2023-03-01T11:48:09;9.00;96.00
16955;DHT22;8594;52.052;8.354;2023-03-01T11:50:50;9.10;95.50
16955;DHT22;8594;52.052;8.354;2023-03-01T11:53:32;8.70;96.10
16955;DHT22;8594;52.052;8.354;2023-03-01T11:56:18;8.90;95.90
16955;DHT22;8594;52.052;8.354;2023-03-01T12:05:38;8.20;96.30
16955;DHT22;8594;52.052;8.354;2023-03-01T12:08:34;8.30;96.90
16955;DHT22;8594;52.052;8.354;2023-03-01T12:11:12;8.70;96.70
16955;DHT22;8594;52.052;8.354;2023-03-01T12:13:59;8.70;95.80
16955;DHT22;8594;52.052;8.354;2023-03-01T12:17:04;8.70;95.90
16955;DHT22;8594;52.052;8.354;2023-03-01T12:19:56;8.60;96.20
16955;DHT22;8594;52.052;8.354;2023-03-01T12:22:55;8.60;96.10
16955;DHT22;8594;52.052;8.354;2023-03-01T12:25:39;8.70;94.90
16955;DHT22;8594;52.052;8.354;2023-03-01T12:28:23;8.60;95.00
16955;DHT22;8594;52.052;8.354;2023-03-01T12:31:27;8.60;95.40
16955;DHT22;8594;52.052;8.354;2023-03-01T12:34:45;8.40;95.70
16955;DHT22;8594;52.052;8.354;2023-03-01T12:37:25;8.60;95.10
16955;DHT22;8594;52.052;8.354;2023-03-01T12:40:27;8.90;94.70
16955;DHT22;8594;52.052;8.354;2023-03-01T12:43:13;8.90;94.90
16955;DHT22;8594;52.052;8.354;2023-03-01T12:45:57;8.90;95.00
16955;DHT22;8594;52.052;8.354;2023-03-01T12:48:43;8.90;94.90
16955;DHT22;8594;52.052;8.354;2023-03-01T12:51:19;8.40;96.10
16955;DHT22;8594;52.052;8.354;2023-03-01T12:53:51;8.40;96.30
16955;DHT22;8594;52.052;8.354;2023-03-01T12:56:22;8.00;96.90
16955;DHT22;8594;52.052;8.354;2023-03-01T12:58:59;8.10;97.30
16955;DHT22;8594;52.052;8.354;2023-03-01T13:01:42;8.30;97.10
16955;DHT22;8594;52.052;8.354;2023-03-01T13:04:29;8.10;97.50
16955;DHT22;8594;52.052;8.354;2023-03-01T13:07:19;8.20;98.10
16955;DHT22;8594;52.052;8.354;2023-03-01T13:09:55;8.20;97.10
16955;DHT22;8594;52.052;8.354;2023-03-01T13:12:50;8.10;97.00
16955;DHT22;8594;52.052;8.354;2023-03-01T13:15:28;8.20;97.30
16955;DHT22;8594;52.052;8.354;2023-03-01T13:18:01;8.10;97.90
16955;DHT22;8594;52.052;8.354;2023-03-01T13:20:33;7.80;98.10
16955;DHT22;8594;52.052;8.354;2023-03-01T13:23:26;8.00;98.40
16955;DHT22;8594;52.052;8.354;2023-03-01T13:26:07;8.40;98.00
16955;DHT22;8594;52.052;8.354;2023-03-01T13:28:46;8.50;97.50
16955;DHT22;8594;52.052;8.354;2023-03-01T13:34:44;8.60;98.30
16955;DHT22;8594;52.052;8.354;2023-03-01T13:37:27;8.90;97.40
16955;DHT22;8594;52.052;8.354;2023-03-01T13:40:05;9.10;97.20
16955;DHT22;8594;52.052;8.354;2023-03-01T13:43:30;9.40;96.70
16955;DHT22;8594;52.052;8.354;2023-03-01T13:45:59;9.10;97.00
16955;DHT22;8594;52.052;8.354;2023-03-01T13:48:29;9.00;96.30
16955;DHT22;8594;52.052;8.354;2023-03-01T13:50:59;9.00;96.20
16955;DHT22;8594;52.052;8.354;2023-03-01T13:53:31;9.10;96.50
16955;DHT22;8594;52.052;8.354;2023-03-01T13:56:06;9.20;96.40
16955;DHT22;8594;52.052;8.354;2023-03-01T13:58:46;8.90;96.40
16955;DHT22;8594;52.052;8.354;2023-03-01T14:01:28;8.70;96.30
16955;DHT22;8594;52.052;8.354;2023-03-01T14:03:59;8.70;96.90
16955;DHT22;8594;52.052;8.354;2023-03-01T14:06:28;8.60;97.00
16955;DHT22;8594;52.052;8.354;2023-03-01T14:09:03;8.40;96.40
16955;DHT22;8594;52.052;8.354;2023-03-01T14:11:56;8.30;97.00
16955;DHT22;8594;52.052;8.354;2023-03-01T14:14:44;8.30;97.50
16955;DHT22;8594;52.052;8.354;2023-03-01T14:17:37;8.70;96.80
16955;DHT22;8594;52.052;8.354;2023-03-01T14:20:16;8.60;96.30
16955;DHT22;8594;52.052;8.354;2023-03-01T14:22:46;8.30;97.20
16955;DHT22;8594;52.052;8.354;2023-03-01T14:25:21;8.20;97.60
16955;DHT22;8594;52.052;8.354;2023-03-01T14:27:55;8.20;97.30
16955;DHT22;8594;52.052;8.354;2023-03-01T14:30:27;8.10;97.40
16955;DHT22;8594;52.052;8.354;2023-03-01T14:33:00;8.00;97.20
16955;DHT22;8594;52.052;8.354;2023-03-01T14:35:33;8.00;97.30
16955;DHT22;8594;52.052;8.354;2023-03-01T14:38:03;8.00;97.60
16955;DHT22;8594;52.052;8.354;2023-03-01T14:40:32;7.90;97.50
16955;DHT22;8594;52.052;8.354;2023-03-01T14:43:08;7.90;97.70
16955;DHT22;8594;52.052;8.354;2023-03-01T14:45:37;8.00;97.80
16955;DHT22;8594;52.052;8.354;2023-03-01T14:48:05;7.80;98.00
16955;DHT22;8594;52.052;8.354;2023-03-01T14:50:40;7.70;97.80
16955;DHT22;8594;52.052;8.354;2023-03-01T14:53:16;7.60;97.90
16955;DHT22;8594;52.052;8.354;2023-03-01T14:55:47;7.70;97.80
16955;DHT22;8594;52.052;8.354;2023-03-01T14:58:20;7.70;97.90
16955;DHT22;8594;52.052;8.354;2023-03-01T15:00:52;7.50;98.20
16955;DHT22;8594;52.052;8.354;2023-03-01T15:03:30;7.40;98.20
16955;DHT22;8594;52.052;8.354;2023-03-01T15:06:03;7.40;98.60
16955;DHT22;8594;52.052;8.354;2023-03-01T15:08:31;7.40;99.00
16955;DHT22;8594;52.052;8.354;2023-03-01T15:11:02;7.50;98.90
16955;DHT22;8594;52.052;8.354;2023-03-01T15:13:32;7.50;98.70
16955;DHT22;8594;52.052;8.354;2023-03-01T15:16:04;7.50;98.90
16955;DHT22;8594;52.052;8.354;2023-03-01T15:18:34;7.40;99.10
16955;DHT22;8594;52.052;8.354;2023-03-01T15:21:08;7.50;99.20
16955;DHT22;8594;52.052;8.354;2023-03-01T15:23:40;7.50;98.60
16955;DHT22;8594;52.052;8.354;2023-03-01T15:26:23;7.30;98.60
16955;DHT22;8594;52.052;8.354;2023-03-01T15:28:53;7.40;98.70
16955;DHT22;8594;52.052;8.354;2023-03-01T15:31:25;7.50;98.70
16955;DHT22;8594;52.052;8.354;2023-03-01T15:34:08;7.60;98.80
16955;DHT22;8594;52.052;8.354;2023-03-01T15:36:42;7.70;99.00
16955;DHT22;8594;52.052;8.354;2023-03-01T15:39:39;7.70;98.30
16955;DHT22;8594;52.052;8.354;2023-03-01T15:42:10;7.60;98.60
16955;DHT22;8594;52.052;8.354;2023-03-01T15:44:39;7.40;98.70
16955;DHT22;8594;52.052;8.354;2023-03-01T15:47:24;7.40;98.60
16955;DHT22;8594;52.052;8.354;2023-03-01T15:49:54;7.50;98.70
16955;DHT22;8594;52.052;8.354;2023-03-01T15:52:26;7.40;98.70
16955;DHT22;8594;52.052;8.354;2023-03-01T15:54:57;7.30;98.60
16955;DHT22;8594;52.052;8.354;2023-03-01T15:57:25;7.20;98.90
16955;DHT22;8594;52.052;8.354;2023-03-01T15:59:52;7.20;99.10
16955;DHT22;8594;52.052;8.354;2023-03-01T16:02:22;7.40;99.20
16955;DHT22;8594;52.052;8.354;2023-03-01T16:04:50;7.40;98.90
16955;DHT22;8594;52.052;8.354;2023-03-01T16:07:19;7.60;99.20
16955;DHT22;8594;52.052;8.354;2023-03-01T16:09:47;7.70;98.70
16955;DHT22;8594;52.052;8.354;2023-03-01T16:12:15;7.80;98.70
16955;DHT22;8594;52.052;8.354;2023-03-01T16:14:43;7.60;99.00
16955;DHT22;8594;52.052;8.354;2023-03-01T16:17:09;7.90;99.10
16955;DHT22;8594;52.052;8.354;2023-03-01T16:19:36;7.80;98.90
16955;DHT22;8594;52.052;8.354;2023-03-01T16:22:03;7.80;98.80
16955;DHT22;8594;52.052;8.354;2023-03-01T16:24:30;7.70;98.80
16955;DHT22;8594;52.052;8.354;2023-03-01T16:26:58;7.40;99.10
16955;DHT22;8594;52.052;8.354;2023-03-01T16:29:25;7.50;99.40
16955;DHT22;8594;52.052;8.354;2023-03-01T16:31:52;7.50;99.20
16955;DHT22;8594;52.052;8.354;2023-03-01T16:34:19;7.40;99.20
16955;DHT22;8594;52.052;8.354;2023-03-01T16:36:47;7.50;99.20
16955;DHT22;8594;52.052;8.354;2023-03-01T16:39:14;7.50;99.40
16955;DHT22;8594;52.052;8.354;2023-03-01T16:41:41;7.50;99.20